createdAt,value
2019-03-19T05:19:18.499Z,98995.03
2019-03-19T05:21:46.803Z,99007.20
2019-03-19T05:24:15.195Z,99013.78
2019-03-19T05:26:43.512Z,99016.80
2019-03-19T05:29:11.952Z,99017.39
2019-03-19T05:31:40.281Z,99017.87
2019-03-19T05:34:08.587Z,99021.44
2019-03-19T05:36:36.888Z,99029.30
2019-03-19T05:39:07.337Z,99034.69
2019-03-19T05:41:36.105Z,99039.16
2019-03-19T05:44:04.611Z,99040.79
2019-03-19T05:46:32.959Z,99044.33
2019-03-19T05:49:01.337Z,99047.31
2019-03-19T05:51:29.672Z,99047.96
2019-03-19T05:53:57.990Z,99052.05
2019-03-19T05:56:26.305Z,99062.16
2019-03-19T05:58:54.608Z,99056.55
2019-03-19T06:01:23.086Z,99059.95
2019-03-19T06:03:51.389Z,99055.80
2019-03-19T06:06:19.726Z,99055.92
2019-03-19T06:08:48.034Z,99054.69
2019-03-19T06:11:16.329Z,99054.45
2019-03-19T06:13:44.648Z,99056.37
2019-03-19T06:16:12.955Z,99054.86
2019-03-19T06:18:41.619Z,99060.83
2019-03-19T06:21:09.924Z,99062.91
2019-03-19T06:23:38.246Z,99062.35
2019-03-19T06:26:06.799Z,99065.64
2019-03-19T06:28:35.728Z,99074.54
2019-03-19T06:31:04.410Z,99077.63
2019-03-19T06:33:32.716Z,99083.33
2019-03-19T06:36:01.209Z,99085.70
2019-03-19T06:38:29.510Z,99088.66
2019-03-19T06:40:57.855Z,99084.26
2019-03-19T06:43:26.156Z,99095.09
2019-03-19T06:45:54.465Z,99098.28
2019-03-19T06:48:22.794Z,99106.20
2019-03-19T06:50:51.404Z,99114.45
2019-03-19T06:53:19.748Z,99118.16
2019-03-19T06:55:48.061Z,99107.99
2019-03-19T06:58:16.393Z,99108.52
2019-03-19T07:00:44.692Z,99107.07
2019-03-19T07:03:13.000Z,99120.05
2019-03-19T07:05:41.333Z,99119.52
2019-03-19T07:08:10.175Z,99121.19
2019-03-19T07:10:38.503Z,99122.78
2019-03-19T07:13:06.931Z,99127.16
2019-03-19T07:15:35.236Z,99126.75
2019-03-19T07:18:03.627Z,99129.24
2019-03-19T07:20:32.014Z,99134.30
2019-03-19T07:23:00.314Z,99138.64
2019-03-19T07:25:28.621Z,99137.73
2019-03-19T07:27:57.016Z,99144.46
2019-03-19T07:30:26.671Z,99148.62
2019-03-19T07:32:55.007Z,99152.32
2019-03-19T07:35:23.384Z,99147.79
2019-03-19T07:37:51.733Z,99154.92
2019-03-19T07:40:20.038Z,99150.98
2019-03-19T07:42:48.344Z,99157.61
2019-03-19T07:45:21.046Z,99167.64
2019-03-19T07:47:49.322Z,99162.69
2019-03-19T07:50:19.854Z,99164.27
2019-03-19T07:52:48.228Z,99165.09
2019-03-19T07:55:16.792Z,99160.16
2019-03-19T07:57:45.093Z,99164.27
2019-03-19T08:00:16.308Z,99164.38
2019-03-19T08:02:45.181Z,99170.65
2019-03-19T08:05:13.563Z,99179.67
2019-03-19T08:07:42.398Z,99171.40
2019-03-19T08:10:15.822Z,99176.18
2019-03-19T08:12:44.387Z,99171.51
2019-03-19T08:15:20.279Z,99180.63
2019-03-19T08:17:48.693Z,99175.03
2019-03-19T08:20:18.612Z,99185.97
2019-03-19T08:22:47.384Z,99182.02
2019-03-19T08:25:18.660Z,99178.50
2019-03-19T08:27:47.046Z,99185.89
2019-03-19T08:30:20.084Z,99185.98
2019-03-19T08:32:48.561Z,99182.03
2019-03-19T08:35:16.878Z,99185.30
2019-03-19T08:37:45.264Z,99182.67
2019-03-19T08:40:16.028Z,99192.41
2019-03-19T08:42:44.722Z,99191.01
2019-03-19T08:45:19.072Z,99199.11
2019-03-19T08:47:47.539Z,99191.16
2019-03-19T08:50:21.049Z,99197.50
2019-03-19T08:52:49.398Z,99194.02
2019-03-19T08:55:17.844Z,99192.87
2019-03-19T08:57:46.217Z,99199.92
2019-03-19T09:00:17.872Z,99197.56
2019-03-19T09:02:46.243Z,99196.09
2019-03-19T09:05:14.937Z,99206.66
2019-03-19T09:07:43.257Z,99211.81
2019-03-19T09:10:16.361Z,99203.66
2019-03-19T09:12:44.859Z,99202.91
2019-03-19T09:15:17.692Z,99205.86
2019-03-19T09:17:46.059Z,99217.51
2019-03-19T09:20:15.910Z,99210.63
2019-03-19T09:22:44.300Z,99215.21
2019-03-19T09:25:12.872Z,99216.91
2019-03-19T09:27:41.270Z,99219.12
2019-03-19T09:30:18.738Z,99215.92
2019-03-19T09:32:47.380Z,99212.72
2019-03-19T09:35:15.754Z,99216.96
2019-03-19T09:37:53.629Z,99219.17
2019-03-19T09:40:19.847Z,99223.75
2019-03-19T09:42:48.808Z,99218.45
2019-03-19T09:45:18.187Z,99213.92
2019-03-19T09:47:47.233Z,99217.43
2019-03-19T09:50:20.528Z,99212.49
2019-03-19T09:52:49.082Z,99220.22
2019-03-19T09:55:17.768Z,99216.11
2019-03-19T09:57:46.177Z,99227.73
2019-03-19T10:00:22.945Z,99208.70
2019-03-19T10:02:51.277Z,99214.96
2019-03-19T10:05:19.879Z,99214.34
2019-03-19T10:07:48.586Z,99209.58
2019-03-19T10:10:23.873Z,99209.03
2019-03-19T10:12:52.149Z,99204.26
2019-03-19T10:15:20.523Z,99209.48
2019-03-19T10:17:48.850Z,99205.70
2019-03-19T10:20:18.893Z,99211.78
2019-03-19T10:22:47.999Z,99205.05
2019-03-19T10:25:16.987Z,99210.42
2019-03-19T10:27:45.373Z,99205.52
2019-03-19T10:30:21.948Z,99204.84
2019-03-19T10:32:50.322Z,99201.41
2019-03-19T10:35:19.561Z,99198.83
2019-03-19T10:37:47.949Z,99192.60
2019-03-19T10:40:22.693Z,99195.06
2019-03-19T10:42:51.037Z,99193.75
2019-03-19T10:45:23.278Z,99192.58
2019-03-19T10:47:51.576Z,99192.84
2019-03-19T10:50:26.778Z,99191.84
2019-03-19T10:52:55.138Z,99200.18
2019-03-19T10:55:23.571Z,99200.55
2019-03-19T10:57:51.912Z,99205.50
2019-03-19T11:00:27.119Z,99208.18
2019-03-19T11:02:55.515Z,99200.67
2019-03-19T11:05:24.749Z,99193.33
2019-03-19T11:07:53.468Z,99191.77
2019-03-19T11:10:22.257Z,99194.08
2019-03-19T11:12:50.716Z,99191.67
2019-03-19T11:15:21.040Z,99186.63
2019-03-19T11:17:49.431Z,99174.34
2019-03-19T11:20:18.877Z,99182.75
2019-03-19T11:22:47.538Z,99178.02
2019-03-19T11:25:21.113Z,99175.64
2019-03-19T11:27:49.482Z,99188.09
2019-03-19T11:30:29.163Z,99167.62
2019-03-19T11:32:57.549Z,99190.12
2019-03-19T11:35:26.438Z,99192.05
2019-03-19T11:37:54.887Z,99184.69
2019-03-19T11:40:25.553Z,99184.78
2019-03-19T11:42:53.576Z,99190.40
2019-03-19T11:45:23.158Z,99193.52
2019-03-19T11:47:52.156Z,99186.59
2019-03-19T11:50:26.164Z,99181.61
2019-03-19T11:52:54.899Z,99173.69
2019-03-19T11:55:23.580Z,99177.70
2019-03-19T11:57:52.427Z,99179.65
2019-03-19T12:00:30.150Z,99162.52
2019-03-19T12:02:58.818Z,99165.65
2019-03-19T12:05:27.210Z,99166.05
2019-03-19T12:07:55.507Z,99167.42
2019-03-19T12:10:23.798Z,99173.66
2019-03-19T12:12:52.115Z,99183.72
2019-03-19T12:15:20.491Z,99181.22
2019-03-19T12:17:48.991Z,99244.67
2019-03-19T12:20:17.368Z,99197.33
2019-03-19T12:22:45.706Z,99204.34
2019-03-19T12:25:14.569Z,99186.37
2019-03-19T12:27:42.870Z,99195.23
2019-03-19T12:30:22.359Z,99199.70
2019-03-19T12:32:46.546Z,99197.33
2019-03-19T12:35:16.582Z,99185.30
2019-03-19T12:37:45.014Z,99163.00
2019-03-19T12:40:19.194Z,99169.07
2019-03-19T12:42:47.568Z,99156.11
2019-03-19T12:45:20.270Z,99164.21
2019-03-19T12:47:48.628Z,99169.45
2019-03-19T12:50:22.831Z,99164.36
2019-03-19T12:52:51.952Z,99165.86
2019-03-19T12:55:20.352Z,99160.56
2019-03-19T12:57:48.746Z,99157.09
2019-03-19T13:00:34.216Z,99159.70
2019-03-19T13:02:57.941Z,99156.63
2019-03-19T13:05:26.356Z,99158.30
2019-03-19T13:07:54.706Z,99155.13
2019-03-19T13:10:24.054Z,99161.53
2019-03-19T13:12:52.371Z,99150.05
2019-03-19T13:15:21.408Z,99164.33
2019-03-19T13:17:49.795Z,99153.50
2019-03-19T13:20:19.112Z,99150.34
2019-03-19T13:22:47.433Z,99150.31
2019-03-19T13:25:18.025Z,99150.70
2019-03-19T13:27:46.699Z,99137.78
2019-03-19T13:30:29.191Z,99139.28
2019-03-19T13:32:57.605Z,99150.73
2019-03-19T13:35:25.905Z,99142.22
2019-03-19T13:37:54.273Z,99142.97
2019-03-19T13:40:22.657Z,99151.62
2019-03-19T13:42:50.961Z,99148.56
2019-03-19T13:45:24.159Z,99155.05
2019-03-19T13:47:52.599Z,99160.56
2019-03-19T13:50:22.177Z,99151.70
2019-03-19T13:52:50.711Z,99163.22
2019-03-19T13:55:20.360Z,99161.41
2019-03-19T13:57:48.744Z,99158.67
2019-03-19T14:00:18.091Z,99156.75
2019-03-19T14:02:46.500Z,99157.58
2019-03-19T14:05:15.788Z,99155.63
2019-03-19T14:07:44.507Z,99148.92
2019-03-19T14:10:15.143Z,99143.89
2019-03-19T14:12:43.541Z,99145.89
2019-03-19T14:15:20.886Z,99146.67
2019-03-19T14:17:49.281Z,99140.70
2019-03-19T14:20:17.966Z,99151.42
2019-03-19T14:22:46.649Z,99154.30
2019-03-19T14:25:16.411Z,99162.03
2019-03-19T14:27:44.702Z,99163.59
2019-03-19T14:30:20.205Z,99168.28
2019-03-19T14:32:48.502Z,99164.38
2019-03-19T14:35:16.795Z,99170.18
2019-03-19T14:37:45.345Z,99159.00
2019-03-19T14:40:22.814Z,99160.85
2019-03-19T14:42:51.636Z,99170.12
2019-03-19T14:45:19.929Z,99168.61
2019-03-19T14:47:48.355Z,99172.16
2019-03-19T14:50:18.862Z,99165.35
2019-03-19T14:52:47.904Z,99173.72
2019-03-19T14:55:16.291Z,99170.33
2019-03-19T14:57:44.664Z,99177.73
2019-03-19T15:00:23.211Z,99180.16
2019-03-19T15:02:51.474Z,99174.70
2019-03-19T15:05:20.149Z,99178.46
2019-03-19T15:07:48.521Z,99184.17
2019-03-19T15:10:21.939Z,99182.46
2019-03-19T15:12:50.736Z,99186.31
2019-03-19T15:15:20.564Z,99187.36
2019-03-19T15:17:48.953Z,99189.21
2019-03-19T15:20:26.181Z,99189.21
2019-03-19T15:22:54.496Z,99187.02
2019-03-19T15:25:22.862Z,99190.72
2019-03-19T15:27:51.166Z,99199.70
2019-03-19T15:30:21.093Z,99197.61
2019-03-19T15:32:49.754Z,99202.52
2019-03-19T15:35:18.052Z,99202.08
2019-03-19T15:37:46.372Z,99197.10
2019-03-19T15:40:21.039Z,99205.92
2019-03-19T15:42:49.499Z,99209.41
2019-03-19T15:45:23.583Z,99207.28
2019-03-19T15:47:51.884Z,99205.31
2019-03-19T15:50:20.215Z,99203.88
2019-03-19T15:52:48.528Z,99216.69
2019-03-19T15:55:17.182Z,99220.29
2019-03-19T15:57:45.969Z,99228.33
2019-03-19T16:00:19.357Z,99227.61
2019-03-19T16:02:48.062Z,99216.17
2019-03-19T16:05:16.622Z,99223.17
2019-03-19T16:07:45.048Z,99222.64
2019-03-19T16:10:17.558Z,99219.93
2019-03-19T16:12:46.211Z,99218.11
2019-03-19T16:15:18.245Z,99234.19
2019-03-19T16:17:46.622Z,99237.20
2019-03-19T16:20:16.703Z,99249.77
2019-03-19T16:22:45.099Z,99246.84
2019-03-19T16:25:14.141Z,99246.02
2019-03-19T16:27:42.514Z,99248.91
2019-03-19T16:30:21.011Z,99251.11
2019-03-19T16:32:49.380Z,99260.47
2019-03-19T16:35:17.759Z,99261.81
2019-03-19T16:37:46.074Z,99266.23
2019-03-19T16:40:21.411Z,99270.39
2019-03-19T16:42:49.994Z,99273.39
2019-03-19T16:45:19.011Z,99280.80
2019-03-19T16:47:47.508Z,99280.62
2019-03-19T16:50:17.445Z,99283.43
2019-03-19T16:52:45.757Z,99284.41
2019-03-19T16:55:18.584Z,99283.55
2019-03-19T16:57:46.964Z,99294.83
2019-03-19T17:00:20.213Z,99298.19
2019-03-19T17:02:48.611Z,99304.38
2019-03-19T17:05:18.375Z,99309.85
2019-03-19T17:07:46.801Z,99312.05
2019-03-19T17:10:23.895Z,99316.29
2019-03-19T17:12:52.221Z,99310.84
2019-03-19T17:15:20.587Z,99311.19
2019-03-19T17:17:49.175Z,99315.06
2019-03-19T17:20:18.926Z,99319.77
2019-03-19T17:22:47.285Z,99328.29
2019-03-19T17:25:20.869Z,99334.39
2019-03-19T17:27:49.256Z,99344.42
2019-03-19T17:30:20.095Z,99350.78
2019-03-19T17:32:48.491Z,99355.86
2019-03-19T17:35:16.865Z,99361.64
2019-03-19T17:37:45.330Z,99371.46
2019-03-19T17:40:16.287Z,99370.53
2019-03-19T17:42:44.679Z,99374.23
2019-03-19T17:45:14.410Z,99377.16
2019-03-19T17:47:42.779Z,99384.88
2019-03-19T17:50:23.438Z,99392.93
2019-03-19T17:52:53.274Z,99394.53
2019-03-19T17:55:22.043Z,99390.35
2019-03-19T17:57:50.433Z,99401.41
2019-03-19T18:00:24.714Z,99407.83
2019-03-19T18:02:53.013Z,99410.69
2019-03-19T18:05:21.428Z,99410.25
2019-03-19T18:07:50.104Z,99419.23
2019-03-19T18:10:18.558Z,99417.97
2019-03-19T18:12:46.887Z,99425.62
2019-03-19T18:15:19.255Z,99429.80
2019-03-19T18:17:47.648Z,99433.45
2019-03-19T18:20:16.898Z,99434.83
2019-03-19T18:22:45.318Z,99432.78
2019-03-19T18:25:15.810Z,99441.03
2019-03-19T18:27:44.262Z,99444.45
2019-03-19T18:30:18.028Z,99450.59
2019-03-19T18:32:46.434Z,99452.56
2019-03-19T18:35:14.881Z,99453.23
2019-03-19T18:37:45.555Z,99454.42
2019-03-19T18:40:15.985Z,99457.67
2019-03-19T18:42:44.386Z,99460.05
2019-03-19T18:45:15.411Z,99461.95
2019-03-19T18:47:43.710Z,99467.09
2019-03-19T18:50:17.747Z,99464.12
2019-03-19T18:52:47.731Z,99470.52
2019-03-19T18:55:16.092Z,99475.70
2019-03-19T18:57:44.408Z,99478.82
2019-03-19T19:00:17.759Z,99477.72
2019-03-19T19:02:50.242Z,99483.75
2019-03-19T19:05:25.504Z,99482.31
2019-03-19T19:07:53.901Z,99484.84
2019-03-19T19:10:22.542Z,99489.80
2019-03-19T19:12:50.930Z,99495.34
2019-03-19T19:15:23.412Z,99498.03
2019-03-19T19:17:51.801Z,99498.03
2019-03-19T19:20:20.888Z,99496.02
2019-03-19T19:22:49.359Z,99502.64
2019-03-19T19:25:24.916Z,99510.91
2019-03-19T19:27:53.231Z,99510.02
2019-03-19T19:30:31.855Z,99510.66
2019-03-19T19:33:02.528Z,99515.59
2019-03-19T19:35:30.267Z,99519.73
2019-03-19T19:37:58.593Z,99516.40
2019-03-19T19:40:26.959Z,99517.68
2019-03-19T19:42:55.260Z,99522.96
2019-03-19T19:45:23.692Z,99528.80
2019-03-19T19:47:52.345Z,99525.56
2019-03-19T19:50:21.598Z,99522.22
2019-03-19T19:52:50.209Z,99531.16
2019-03-19T19:55:18.522Z,99531.42
2019-03-19T19:57:47.209Z,99531.42
2019-03-19T20:00:19.806Z,99541.53
2019-03-19T20:02:48.205Z,99532.61
2019-03-19T20:05:16.585Z,99533.98
2019-03-19T20:07:45.016Z,99540.77
2019-03-19T20:10:18.240Z,99541.71
2019-03-19T20:12:46.602Z,99544.27
2019-03-19T20:15:15.279Z,99539.80
2019-03-19T20:17:43.757Z,99543.02
2019-03-19T20:20:14.503Z,99550.52
2019-03-19T20:22:44.808Z,99551.13
2019-03-19T20:25:13.919Z,99553.38
2019-03-19T20:27:42.307Z,99558.41
2019-03-19T20:30:16.523Z,99552.67
2019-03-19T20:32:45.003Z,99557.52
2019-03-19T20:35:13.432Z,99555.58
2019-03-19T20:37:42.086Z,99562.09
2019-03-19T20:40:12.897Z,99563.78
2019-03-19T20:42:41.315Z,99569.71
2019-03-19T20:45:12.643Z,99570.95
2019-03-19T20:47:41.036Z,99573.44
2019-03-19T20:50:15.449Z,99571.70
2019-03-19T20:52:43.835Z,99574.42
2019-03-19T20:55:12.764Z,99574.34
2019-03-19T20:57:41.222Z,99580.41
2019-03-19T21:00:19.230Z,99578.69
2019-03-19T21:02:48.387Z,99578.64
2019-03-19T21:05:16.696Z,99582.72
2019-03-19T21:07:45.505Z,99583.36
2019-03-19T21:10:24.230Z,99582.22
2019-03-19T21:12:52.902Z,99584.52
2019-03-19T21:15:23.438Z,99584.41
2019-03-19T21:17:51.828Z,99582.79
2019-03-19T21:20:20.302Z,99589.61
2019-03-19T21:22:48.778Z,99588.84
2019-03-19T21:25:17.514Z,99589.61
2019-03-19T21:27:45.889Z,99593.99
2019-03-19T21:30:17.118Z,99593.88
2019-03-19T21:32:46.128Z,99599.32
2019-03-19T21:35:14.507Z,99604.31
2019-03-19T21:37:42.892Z,99604.13
2019-03-19T21:40:15.675Z,99611.02
2019-03-19T21:42:44.050Z,99611.94
2019-03-19T21:45:20.961Z,99602.41
2019-03-19T21:47:49.331Z,99613.44
2019-03-19T21:50:20.064Z,99612.98
2019-03-19T21:52:48.431Z,99612.66
2019-03-19T21:55:16.805Z,99616.52
2019-03-19T21:57:45.486Z,99615.92
2019-03-19T22:00:27.032Z,99621.16
2019-03-19T22:02:55.599Z,99627.05
2019-03-19T22:05:24.359Z,99628.23
2019-03-19T22:07:52.693Z,99624.78
2019-03-19T22:10:22.238Z,99629.05
2019-03-19T22:12:50.792Z,99627.37
2019-03-19T22:15:26.707Z,99628.78
2019-03-19T22:17:55.088Z,99631.01
2019-03-19T22:20:23.874Z,99629.70
2019-03-19T22:22:52.567Z,99641.34
2019-03-19T22:25:20.878Z,99642.33
2019-03-19T22:27:49.251Z,99641.14
2019-03-19T22:30:19.772Z,99634.53
2019-03-19T22:32:48.439Z,99639.69
2019-03-19T22:35:16.824Z,99644.01
2019-03-19T22:37:45.920Z,99640.75
2019-03-19T22:40:20.295Z,99642.65
2019-03-19T22:42:48.609Z,99647.42
2019-03-19T22:45:20.286Z,99634.10
2019-03-19T22:47:48.774Z,99639.69
2019-03-19T22:50:18.124Z,99643.90
2019-03-19T22:52:46.997Z,99648.73
2019-03-19T22:55:16.263Z,99650.52
2019-03-19T22:57:44.807Z,99652.58
2019-03-19T23:00:40.032Z,99652.08
2019-03-19T23:03:08.782Z,99654.35
2019-03-19T23:05:37.158Z,99659.61
2019-03-19T23:08:06.302Z,99661.89
2019-03-19T23:10:35.427Z,99671.41
2019-03-19T23:13:04.361Z,99669.73
2019-03-19T23:15:32.660Z,99669.36
2019-03-19T23:18:01.395Z,99670.80
2019-03-19T23:20:29.763Z,99671.23
2019-03-19T23:22:58.319Z,99675.91
2019-03-19T23:25:26.731Z,99679.80
2019-03-19T23:27:55.238Z,99676.62
2019-03-19T23:30:24.888Z,99682.40
2019-03-19T23:32:53.823Z,99683.56
2019-03-19T23:35:22.392Z,99686.83
2019-03-19T23:37:50.809Z,99692.36
2019-03-19T23:40:21.120Z,99688.31
2019-03-19T23:42:49.502Z,99687.73
2019-03-19T23:45:17.883Z,99699.05
2019-03-19T23:47:46.312Z,99696.55
2019-03-19T23:50:19.054Z,99702.61
2019-03-19T23:52:47.848Z,99705.69
2019-03-19T23:55:16.230Z,99703.53
2019-03-19T23:57:44.605Z,99709.58
